Time;durP1;ratioP1;P1;durP2;ratioP2;P2;SDS_P1;SDS_P2;PMS_P1;PMS_P2;Temp;Humidity;BMP_temperature;BMP_pressure;BME280_temperature;BME280_humidity;BME280_pressure;Samples;Min_cycle;Max_cycle;Signal;HPM_P1;HPM_P2
2022/03/08 00:00:41;;;;;;;25.65;12.95;;;;;;;;;;5009393;28;20057;-79
2022/03/08 00:03:07;;;;;;;21.75;11.48;;;;;;;;;;5014632;28;20026;-78
2022/03/08 00:05:32;;;;;;;24.77;12.38;;;;;;;;;;5012686;28;20037;-79
2022/03/08 00:07:58;;;;;;;24.30;12.07;;;;;;;;;;5016895;28;20037;-79
2022/03/08 00:10:25;;;;;;;24.30;11.73;;;;;;;;;;5025210;28;20049;-79
2022/03/08 00:12:51;;;;;;;23.77;11.48;;;;;;;;;;5012357;28;20041;-79
2022/03/08 00:15:19;;;;;;;22.48;10.98;;;;;;;;;;5014585;28;20061;-79
2022/03/08 00:17:44;;;;;;;23.25;11.60;;;;;;;;;;5019156;28;20022;-79
2022/03/08 00:20:12;;;;;;;24.45;12.23;;;;;;;;;;5020184;28;20290;-79
2022/03/08 00:22:38;;;;;;;25.73;12.27;;;;;;;;;;5018617;28;20096;-78
2022/03/08 00:25:05;;;;;;;29.90;11.82;;;;;;;;;;5019125;28;20030;-78
2022/03/08 00:27:31;;;;;;;21.88;11.73;;;;;;;;;;5026039;28;20020;-78
2022/03/08 00:29:57;;;;;;;29.77;13.10;;;;;;;;;;5020380;28;20033;-78
2022/03/08 00:32:22;;;;;;;23.55;12.30;;;;;;;;;;5020082;28;20377;-78
2022/03/08 00:34:47;;;;;;;22.95;11.05;;;;;;;;;;5026584;28;20021;-78
2022/03/08 00:37:13;;;;;;;25.85;12.13;;;;;;;;;;5042449;28;20041;-78
2022/03/08 00:39:39;;;;;;;26.33;12.07;;;;;;;;;;5022483;28;20036;-78
2022/03/08 00:42:04;;;;;;;22.73;10.43;;;;;;;;;;5024781;28;20303;-79
2022/03/08 00:44:30;;;;;;;24.73;11.65;;;;;;;;;;5022458;28;20254;-79
2022/03/08 00:46:55;;;;;;;24.83;11.73;;;;;;;;;;5019461;28;20045;-79
2022/03/08 00:49:21;;;;;;;28.60;12.00;;;;;;;;;;5032200;28;20191;-79
2022/03/08 00:51:46;;;;;;;27.35;11.98;;;;;;;;;;5036254;28;20032;-80
2022/03/08 00:54:12;;;;;;;23.15;11.85;;;;;;;;;;5032638;28;20018;-79
2022/03/08 00:56:37;;;;;;;24.75;11.88;;;;;;;;;;5046663;28;20123;-80
2022/03/08 00:59:02;;;;;;;25.73;12.65;;;;;;;;;;5037567;28;20071;-80
2022/03/08 01:01:28;;;;;;;23.40;11.30;;;;;;;;;;5043761;28;20025;-79
2022/03/08 01:03:53;;;;;;;23.65;11.52;;;;;;;;;;5046446;28;20431;-81
2022/03/08 01:06:18;;;;;;;23.70;12.00;;;;;;;;;;5025753;28;20084;-79
2022/03/08 01:08:44;;;;;;;22.73;11.30;;;;;;;;;;5034217;28;20546;-78
2022/03/08 01:11:09;;;;;;;22.98;11.82;;;;;;;;;;5038606;28;20349;-80
2022/03/08 01:13:35;;;;;;;22.58;11.02;;;;;;;;;;5038980;28;20089;-78
2022/03/08 01:16:00;;;;;;;23.15;11.02;;;;;;;;;;5024047;28;20030;-78
2022/03/08 01:18:25;;;;;;;24.48;11.52;;;;;;;;;;5018541;28;20084;-78
2022/03/08 01:20:51;;;;;;;28.52;12.25;;;;;;;;;;5020940;28;20029;-78
2022/03/08 01:23:17;;;;;;;24.30;11.85;;;;;;;;;;5019775;28;20018;-78
2022/03/08 01:25:42;;;;;;;20.90;10.65;;;;;;;;;;5017078;28;20076;-79
2022/03/08 01:28:08;;;;;;;23.40;11.43;;;;;;;;;;5015753;28;20383;-78
2022/03/08 01:30:33;;;;;;;22.73;11.35;;;;;;;;;;5015431;28;20045;-79
2022/03/08 01:32:59;;;;;;;22.30;10.02;;;;;;;;;;5018759;28;20349;-78
2022/03/08 01:35:24;;;;;;;23.00;11.27;;;;;;;;;;5018858;28;20029;-78
2022/03/08 01:37:50;;;;;;;21.55;11.30;;;;;;;;;;5019726;28;20030;-78
2022/03/08 01:40:16;;;;;;;27.27;11.25;;;;;;;;;;5021282;28;20037;-79
2022/03/08 01:42:45;;;;;;;27.27;12.80;;;;;;;;;;5023223;28;20022;-78
2022/03/08 01:45:10;;;;;;;23.95;11.52;;;;;;;;;;5023467;28;20018;-79
2022/03/08 01:47:36;;;;;;;26.05;12.73;;;;;;;;;;5024153;28;20284;-78
2022/03/08 01:50:01;;;;;;;26.17;12.32;;;;;;;;;;5024369;28;20297;-78
2022/03/08 01:52:27;;;;;;;26.25;13.30;;;;;;;;;;5023373;28;20029;-78
2022/03/08 01:54:53;;;;;;;20.15;10.30;;;;;;;;;;5021910;28;20057;-78
2022/03/08 01:57:23;;;;;;;23.58;11.50;;;;;;;;;;5024628;28;20025;-79
2022/03/08 01:59:49;;;;;;;25.00;11.88;;;;;;;;;;5022749;28;20072;-79
2022/03/08 02:02:14;;;;;;;23.70;12.05;;;;;;;;;;5024557;28;20029;-79
2022/03/08 02:04:40;;;;;;;23.58;10.95;;;;;;;;;;5022870;28;20032;-80
2022/03/08 02:07:07;;;;;;;22.80;11.10;;;;;;;;;;5022541;28;20250;-79
2022/03/08 02:09:33;;;;;;;27.20;12.43;;;;;;;;;;5022678;28;20026;-79
2022/03/08 02:11:58;;;;;;;23.20;11.75;;;;;;;;;;5022094;28;20053;-79
2022/03/08 02:14:23;;;;;;;29.02;12.35;;;;;;;;;;5022196;28;20049;-79
2022/03/08 02:16:49;;;;;;;24.35;11.45;;;;;;;;;;5022721;28;20329;-79
2022/03/08 02:19:15;;;;;;;23.33;12.20;;;;;;;;;;5025310;28;20041;-77
2022/03/08 02:21:42;;;;;;;25.98;12.73;;;;;;;;;;5021574;28;20226;-78
2022/03/08 02:24:07;;;;;;;22.83;11.43;;;;;;;;;;5022194;28;20038;-78
2022/03/08 02:26:33;;;;;;;25.65;12.73;;;;;;;;;;5027498;28;20032;-78
2022/03/08 02:28:59;;;;;;;24.70;12.48;;;;;;;;;;5026020;28;20037;-78
2022/03/08 02:31:25;;;;;;;26.48;12.80;;;;;;;;;;5024269;28;20025;-78
2022/03/08 02:33:51;;;;;;;23.52;10.85;;;;;;;;;;5030928;28;20056;-78
2022/03/08 02:36:16;;;;;;;24.17;11.57;;;;;;;;;;5023146;28;20072;-78
2022/03/08 02:38:42;;;;;;;27.95;12.77;;;;;;;;;;5019009;28;20084;-78
2022/03/08 02:41:08;;;;;;;28.35;12.75;;;;;;;;;;5020999;28;20064;-78
2022/03/08 02:43:34;;;;;;;27.27;12.65;;;;;;;;;;5017800;28;20022;-78
2022/03/08 02:45:59;;;;;;;25.58;12.05;;;;;;;;;;5014074;28;20033;-79
2022/03/08 02:48:26;;;;;;;26.80;12.73;;;;;;;;;;5021875;28;20017;-78
2022/03/08 02:50:51;;;;;;;22.15;10.77;;;;;;;;;;5025399;28;20129;-79
2022/03/08 02:53:17;;;;;;;25.67;12.05;;;;;;;;;;5025231;28;20021;-78
2022/03/08 02:55:42;;;;;;;28.98;13.18;;;;;;;;;;5021552;28;20316;-78
2022/03/08 02:58:08;;;;;;;25.08;12.13;;;;;;;;;;5024664;28;20249;-79
2022/03/08 03:00:34;;;;;;;23.85;12.48;;;;;;;;;;5021603;28;20278;-78
2022/03/08 03:03:00;;;;;;;26.80;12.15;;;;;;;;;;5021769;28;20030;-78
2022/03/08 03:05:25;;;;;;;23.63;11.98;;;;;;;;;;5021613;28;20111;-78
2022/03/08 03:07:51;;;;;;;24.10;12.32;;;;;;;;;;5021560;28;20046;-79
2022/03/08 03:10:19;;;;;;;27.23;12.07;;;;;;;;;;5021683;28;20037;-78
2022/03/08 03:12:45;;;;;;;24.33;12.20;;;;;;;;;;5021643;28;20314;-78
2022/03/08 03:15:12;;;;;;;24.85;11.27;;;;;;;;;;5023053;28;20032;-78
2022/03/08 03:17:38;;;;;;;25.88;11.70;;;;;;;;;;5022985;28;20041;-78
2022/03/08 03:20:07;;;;;;;24.40;12.65;;;;;;;;;;5022729;28;20033;-78
2022/03/08 03:22:33;;;;;;;24.23;11.50;;;;;;;;;;5022679;28;20018;-78
2022/03/08 03:24:58;;;;;;;26.23;12.25;;;;;;;;;;5022527;28;20017;-78
2022/03/08 03:27:24;;;;;;;25.00;12.43;;;;;;;;;;5022505;28;20380;-78
2022/03/08 03:29:49;;;;;;;26.42;11.32;;;;;;;;;;5054641;28;20184;-78
2022/03/08 03:32:14;;;;;;;26.05;11.93;;;;;;;;;;5022400;28;20017;-78
2022/03/08 03:34:40;;;;;;;26.52;12.88;;;;;;;;;;5024399;28;20044;-79
2022/03/08 03:37:05;;;;;;;24.85;12.02;;;;;;;;;;5033793;28;20014;-78
2022/03/08 03:39:31;;;;;;;22.77;12.07;;;;;;;;;;5027135;28;20029;-78
2022/03/08 03:41:57;;;;;;;26.67;13.20;;;;;;;;;;5022758;28;20216;-77
2022/03/08 03:44:22;;;;;;;25.10;11.98;;;;;;;;;;5022328;28;20026;-78
2022/03/08 03:46:49;;;;;;;27.52;12.20;;;;;;;;;;5022590;28;20026;-78
2022/03/08 03:49:14;;;;;;;25.35;12.43;;;;;;;;;;5022264;28;20085;-79
2022/03/08 03:51:40;;;;;;;24.75;11.98;;;;;;;;;;5036940;28;20144;-79
2022/03/08 03:54:06;;;;;;;22.98;11.60;;;;;;;;;;5040628;28;20137;-79
2022/03/08 03:56:33;;;;;;;26.30;11.85;;;;;;;;;;5047980;28;20429;-78
2022/03/08 03:58:59;;;;;;;30.45;12.50;;;;;;;;;;5044961;28;20037;-78
2022/03/08 04:01:25;;;;;;;27.63;11.88;;;;;;;;;;5041468;28;20121;-78
2022/03/08 04:03:50;;;;;;;26.52;12.23;;;;;;;;;;5041773;28;20317;-78
2022/03/08 04:06:15;;;;;;;24.42;12.10;;;;;;;;;;5041654;28;20022;-78
2022/03/08 04:08:41;;;;;;;29.00;13.15;;;;;;;;;;5041166;28;20046;-78
2022/03/08 04:11:06;;;;;;;27.95;12.82;;;;;;;;;;5041406;28;20217;-78
2022/03/08 04:13:32;;;;;;;27.08;12.23;;;;;;;;;;5041619;28;20098;-77
2022/03/08 04:15:57;;;;;;;23.88;11.60;;;;;;;;;;5041680;28;20079;-78
2022/03/08 04:18:22;;;;;;;26.63;11.90;;;;;;;;;;5041474;28;20135;-78
2022/03/08 04:20:48;;;;;;;23.70;11.20;;;;;;;;;;5041621;28;20079;-78
2022/03/08 04:23:13;;;;;;;22.60;11.40;;;;;;;;;;5041370;28;20041;-78
2022/03/08 04:25:39;;;;;;;29.65;12.38;;;;;;;;;;5041430;28;20095;-78
2022/03/08 04:28:05;;;;;;;28.80;12.68;;;;;;;;;;5041450;28;20038;-78
2022/03/08 04:30:30;;;;;;;26.73;12.32;;;;;;;;;;5041214;28;20108;-78
2022/03/08 04:32:56;;;;;;;27.92;12.48;;;;;;;;;;5041525;28;20025;-78
2022/03/08 04:35:22;;;;;;;25.88;11.98;;;;;;;;;;5041271;28;20028;-77
2022/03/08 04:37:47;;;;;;;25.45;12.02;;;;;;;;;;5041322;28;20257;-78
2022/03/08 04:40:13;;;;;;;27.13;12.65;;;;;;;;;;5040770;28;20056;-78
2022/03/08 04:42:40;;;;;;;26.05;11.77;;;;;;;;;;5041121;28;20310;-78
2022/03/08 04:45:07;;;;;;;26.98;13.00;;;;;;;;;;5041182;28;20355;-78
2022/03/08 04:47:35;;;;;;;26.17;11.90;;;;;;;;;;5040991;28;20033;-78
2022/03/08 04:50:01;;;;;;;26.25;12.40;;;;;;;;;;5041399;28;20404;-78
2022/03/08 04:52:27;;;;;;;26.60;12.50;;;;;;;;;;5040929;28;20032;-77
2022/03/08 04:54:52;;;;;;;23.98;11.85;;;;;;;;;;5040769;28;20022;-77
2022/03/08 04:57:17;;;;;;;26.17;12.82;;;;;;;;;;5053265;28;20163;-78
2022/03/08 04:59:43;;;;;;;26.17;11.27;;;;;;;;;;5055879;28;20032;-77
2022/03/08 05:02:08;;;;;;;26.70;12.32;;;;;;;;;;5029026;28;20037;-77
2022/03/08 05:04:33;;;;;;;27.23;12.52;;;;;;;;;;5021486;28;20041;-78
2022/03/08 05:06:59;;;;;;;24.60;11.75;;;;;;;;;;5023771;28;20041;-77
2022/03/08 05:09:24;;;;;;;26.55;12.05;;;;;;;;;;5034299;28;20215;-78
2022/03/08 05:11:50;;;;;;;30.30;13.02;;;;;;;;;;5021151;28;20026;-78
2022/03/08 05:14:15;;;;;;;26.83;12.23;;;;;;;;;;5024035;28;20030;-77
2022/03/08 05:16:40;;;;;;;28.85;12.45;;;;;;;;;;5044910;28;20098;-77
2022/03/08 05:19:06;;;;;;;27.20;13.02;;;;;;;;;;5044642;28;20026;-77
2022/03/08 05:21:31;;;;;;;29.58;13.57;;;;;;;;;;5044665;28;20024;-78
2022/03/08 05:23:57;;;;;;;26.83;13.15;;;;;;;;;;5044726;28;20036;-77
2022/03/08 05:26:22;;;;;;;29.55;12.90;;;;;;;;;;5044757;28;20017;-78
2022/03/08 05:28:48;;;;;;;26.25;11.48;;;;;;;;;;5044891;28;20261;-78
2022/03/08 05:31:13;;;;;;;24.88;12.25;;;;;;;;;;5044590;28;20037;-77
2022/03/08 05:33:40;;;;;;;30.70;13.35;;;;;;;;;;5044591;28;20021;-77
2022/03/08 05:36:05;;;;;;;24.73;12.18;;;;;;;;;;5043929;28;20071;-77
2022/03/08 05:38:31;;;;;;;26.10;13.10;;;;;;;;;;5044257;28;20033;-77
2022/03/08 05:40:57;;;;;;;28.15;13.10;;;;;;;;;;5044453;28;20256;-78
2022/03/08 05:43:22;;;;;;;29.08;13.35;;;;;;;;;;5043403;28;20032;-77
2022/03/08 05:45:48;;;;;;;28.25;12.73;;;;;;;;;;5032634;28;20029;-78
2022/03/08 05:48:13;;;;;;;38.58;13.38;;;;;;;;;;5027598;28;20257;-78
2022/03/08 05:50:39;;;;;;;42.92;12.88;;;;;;;;;;5024399;28;20038;-77
2022/03/08 05:53:04;;;;;;;32.22;12.68;;;;;;;;;;5024031;28;20032;-77
2022/03/08 05:55:30;;;;;;;31.10;12.82;;;;;;;;;;5023399;28;20034;-77
2022/03/08 05:57:55;;;;;;;28.30;12.77;;;;;;;;;;5024349;28;20032;-77
2022/03/08 06:00:21;;;;;;;29.30;13.32;;;;;;;;;;5035448;28;20056;-78
2022/03/08 06:02:46;;;;;;;30.48;13.30;;;;;;;;;;5038298;28;20221;-77
2022/03/08 06:05:12;;;;;;;29.83;13.40;;;;;;;;;;5023773;28;20026;-77
2022/03/08 06:07:37;;;;;;;27.23;12.32;;;;;;;;;;5024325;28;20234;-78
2022/03/08 06:10:06;;;;;;;25.50;12.30;;;;;;;;;;5024035;28;20025;-78
2022/03/08 06:12:31;;;;;;;29.60;13.32;;;;;;;;;;5038337;28;20025;-77
2022/03/08 06:14:57;;;;;;;29.58;12.63;;;;;;;;;;5026963;28;20557;-77
2022/03/08 06:17:22;;;;;;;27.55;13.15;;;;;;;;;;5026346;28;20416;-76
2022/03/08 06:19:47;;;;;;;26.45;12.68;;;;;;;;;;5024056;28;20029;-76
2022/03/08 06:22:13;;;;;;;29.88;13.57;;;;;;;;;;5023865;28;20072;-76
2022/03/08 06:24:38;;;;;;;29.48;13.32;;;;;;;;;;5044204;28;20218;-77
2022/03/08 06:27:04;;;;;;;72.82;16.40;;;;;;;;;;5042076;28;20029;-77
2022/03/08 06:29:29;;;;;;;63.30;15.38;;;;;;;;;;5031033;28;20049;-78
2022/03/08 06:31:55;;;;;;;28.67;12.55;;;;;;;;;;5040104;28;20025;-76
2022/03/08 06:34:20;;;;;;;28.60;13.30;;;;;;;;;;5026870;28;20028;-77
2022/03/08 06:36:46;;;;;;;27.42;13.15;;;;;;;;;;5030577;28;20276;-78
2022/03/08 06:39:12;;;;;;;29.70;13.18;;;;;;;;;;5028469;28;20038;-76
2022/03/08 06:41:37;;;;;;;33.20;12.88;;;;;;;;;;5021931;28;20026;-78
2022/03/08 06:44:03;;;;;;;26.33;12.93;;;;;;;;;;5033666;28;20203;-75
2022/03/08 06:46:29;;;;;;;31.17;13.57;;;;;;;;;;5027484;28;20108;-77
2022/03/08 06:48:55;;;;;;;31.95;14.13;;;;;;;;;;5029917;28;20470;-79
2022/03/08 06:51:20;;;;;;;29.33;14.00;;;;;;;;;;5031459;28;20061;-77
2022/03/08 06:53:46;;;;;;;33.55;14.18;;;;;;;;;;5022761;28;20070;-77
2022/03/08 06:56:11;;;;;;;30.35;13.23;;;;;;;;;;5025007;28;20022;-80
2022/03/08 06:58:36;;;;;;;32.42;13.60;;;;;;;;;;5023106;28;20249;-77
2022/03/08 07:01:02;;;;;;;30.20;13.82;;;;;;;;;;5028101;28;20321;-77
2022/03/08 07:03:28;;;;;;;35.13;14.13;;;;;;;;;;5036241;28;20029;-77
2022/03/08 07:05:53;;;;;;;29.52;13.25;;;;;;;;;;5028269;28;20238;-78
2022/03/08 07:08:18;;;;;;;29.58;13.32;;;;;;;;;;5035540;28;20087;-77
2022/03/08 07:10:44;;;;;;;31.33;13.80;;;;;;;;;;5025947;28;20356;-77
2022/03/08 07:13:09;;;;;;;29.67;13.40;;;;;;;;;;5036411;28;20026;-78
2022/03/08 07:15:35;;;;;;;32.05;14.10;;;;;;;;;;5034177;28;20368;-77
2022/03/08 07:18:00;;;;;;;31.63;13.70;;;;;;;;;;5029754;28;20373;-77
2022/03/08 07:20:26;;;;;;;30.30;14.48;;;;;;;;;;5034092;28;20066;-77
2022/03/08 07:22:51;;;;;;;32.13;14.13;;;;;;;;;;5026777;28;20022;-78
2022/03/08 07:25:16;;;;;;;31.08;13.80;;;;;;;;;;5028661;28;20025;-78
2022/03/08 07:27:42;;;;;;;36.08;14.15;;;;;;;;;;5024079;28;20025;-77
2022/03/08 07:30:09;;;;;;;31.00;14.32;;;;;;;;;;5021297;28;20057;-77
2022/03/08 07:32:35;;;;;;;30.85;14.10;;;;;;;;;;5021382;28;20322;-77
2022/03/08 07:35:01;;;;;;;32.63;15.35;;;;;;;;;;5022965;28;20025;-77
2022/03/08 07:37:26;;;;;;;29.00;13.18;;;;;;;;;;5023684;28;20060;-77
2022/03/08 07:39:52;;;;;;;31.48;14.68;;;;;;;;;;5028123;28;20104;-77
2022/03/08 07:42:19;;;;;;;29.45;13.80;;;;;;;;;;5024068;28;20353;-78
2022/03/08 07:44:44;;;;;;;28.98;13.57;;;;;;;;;;5021309;28;20101;-77
2022/03/08 07:47:09;;;;;;;29.50;13.50;;;;;;;;;;5025593;28;20025;-77
2022/03/08 07:49:35;;;;;;;28.48;12.57;;;;;;;;;;5021252;28;20028;-77
2022/03/08 07:52:01;;;;;;;28.85;13.52;;;;;;;;;;5026411;28;20026;-77
2022/03/08 07:54:26;;;;;;;28.73;13.95;;;;;;;;;;5024505;28;20075;-85
2022/03/08 07:56:52;;;;;;;29.85;13.57;;;;;;;;;;5025159;28;20038;-80
2022/03/08 07:59:17;;;;;;;31.98;14.05;;;;;;;;;;5027086;28;20033;-82
2022/03/08 08:01:42;;;;;;;31.00;14.50;;;;;;;;;;5028400;28;20603;-80
2022/03/08 08:04:08;;;;;;;27.48;14.48;;;;;;;;;;5022531;28;20147;-82
2022/03/08 08:06:33;;;;;;;25.92;13.23;;;;;;;;;;5021701;28;20022;-77
2022/03/08 08:08:59;;;;;;;25.92;13.25;;;;;;;;;;5021896;28;20034;-77
2022/03/08 08:11:24;;;;;;;26.42;14.07;;;;;;;;;;5034462;28;20316;-77
2022/03/08 08:13:50;;;;;;;29.05;14.07;;;;;;;;;;5027080;28;20049;-78
2022/03/08 08:16:17;;;;;;;30.58;14.60;;;;;;;;;;5019450;28;20026;-78
2022/03/08 08:18:42;;;;;;;30.52;14.57;;;;;;;;;;5023702;28;20041;-78
2022/03/08 08:21:08;;;;;;;27.30;14.25;;;;;;;;;;5034199;28;20021;-78
2022/03/08 08:23:33;;;;;;;30.75;15.45;;;;;;;;;;5019714;28;20026;-78
2022/03/08 08:25:58;;;;;;;28.80;13.93;;;;;;;;;;5020046;28;20330;-80
2022/03/08 08:28:24;;;;;;;27.10;13.13;;;;;;;;;;5020380;28;20071;-78
2022/03/08 08:30:49;;;;;;;29.70;13.82;;;;;;;;;;5035903;28;20329;-78
2022/03/08 08:33:15;;;;;;;33.70;15.70;;;;;;;;;;5021345;28;20024;-79
2022/03/08 08:35:40;;;;;;;30.30;14.48;;;;;;;;;;5021061;28;20196;-79
2022/03/08 08:38:06;;;;;;;30.85;15.05;;;;;;;;;;5024945;28;20045;-80
2022/03/08 08:40:31;;;;;;;28.63;13.90;;;;;;;;;;5019703;28;20041;-79
2022/03/08 08:42:57;;;;;;;28.75;15.00;;;;;;;;;;5021654;28;20025;-78
2022/03/08 08:45:22;;;;;;;31.80;15.35;;;;;;;;;;5021214;28;20033;-79
2022/03/08 08:47:48;;;;;;;32.55;15.38;;;;;;;;;;5018563;28;20037;-79
2022/03/08 08:50:13;;;;;;;27.40;14.05;;;;;;;;;;5036713;28;20081;-79
2022/03/08 08:52:39;;;;;;;34.15;15.63;;;;;;;;;;5028758;28;20096;-79
2022/03/08 08:55:05;;;;;;;28.15;15.57;;;;;;;;;;5020002;28;20269;-79
2022/03/08 08:57:30;;;;;;;28.70;13.45;;;;;;;;;;5034817;28;20037;-78
2022/03/08 08:59:55;;;;;;;33.20;15.15;;;;;;;;;;5019962;28;20049;-78
2022/03/08 09:02:21;;;;;;;31.50;14.55;;;;;;;;;;5021428;28;20187;-78
2022/03/08 09:04:46;;;;;;;29.92;15.32;;;;;;;;;;5028711;28;20029;-80
2022/03/08 09:07:12;;;;;;;30.77;15.48;;;;;;;;;;5036505;28;20064;-80
2022/03/08 09:09:37;;;;;;;30.25;15.10;;;;;;;;;;5019196;28;20230;-79
2022/03/08 09:12:03;;;;;;;34.00;16.17;;;;;;;;;;5020032;28;20318;-78
2022/03/08 09:14:28;;;;;;;32.75;15.68;;;;;;;;;;5020776;28;20021;-79
2022/03/08 09:16:55;;;;;;;30.02;15.52;;;;;;;;;;5021314;28;20086;-79
2022/03/08 09:19:21;;;;;;;31.13;14.73;;;;;;;;;;5034631;28;20040;-79
2022/03/08 09:21:46;;;;;;;28.90;14.65;;;;;;;;;;5020787;28;20215;-79
2022/03/08 09:24:12;;;;;;;28.90;15.25;;;;;;;;;;5017872;28;20517;-80
2022/03/08 09:26:37;;;;;;;31.83;16.23;;;;;;;;;;5020702;28;20097;-80
2022/03/08 09:29:03;;;;;;;34.45;15.82;;;;;;;;;;5020588;28;20025;-80
2022/03/08 09:31:28;;;;;;;31.73;16.20;;;;;;;;;;5036085;28;20030;-80
2022/03/08 09:33:54;;;;;;;29.75;15.35;;;;;;;;;;5020229;28;20033;-77
2022/03/08 09:36:19;;;;;;;29.73;14.48;;;;;;;;;;5022871;28;20056;-80
2022/03/08 09:38:45;;;;;;;28.55;12.45;;;;;;;;;;5039509;28;20025;-79
2022/03/08 09:41:11;;;;;;;28.00;15.38;;;;;;;;;;5038936;28;20044;-80
2022/03/08 09:43:38;;;;;;;30.13;15.73;;;;;;;;;;5040593;28;20083;-80
2022/03/08 09:46:04;;;;;;;32.80;16.73;;;;;;;;;;5022336;28;20282;-80
2022/03/08 09:48:30;;;;;;;31.15;16.27;;;;;;;;;;5019007;28;20052;-78
2022/03/08 09:51:00;;;;;;;27.90;13.00;;;;;;;;;;5019860;28;20305;-81
2022/03/08 09:53:26;;;;;;;32.47;15.38;;;;;;;;;;5023822;28;20089;-78
2022/03/08 09:55:57;;;;;;;34.22;16.30;;;;;;;;;;5020858;28;20229;-78
2022/03/08 09:58:22;;;;;;;30.15;15.27;;;;;;;;;;5019712;28;20357;-78
2022/03/08 10:00:48;;;;;;;32.80;16.90;;;;;;;;;;5027944;28;20030;-79
2022/03/08 10:03:13;;;;;;;33.08;17.38;;;;;;;;;;5031280;28;20033;-79
2022/03/08 10:05:43;;;;;;;28.45;13.95;;;;;;;;;;5024359;28;20195;-79
2022/03/08 10:08:19;;;;;;;33.97;17.00;;;;;;;;;;5025734;28;20042;-78
2022/03/08 10:10:52;;;;;;;32.20;16.02;;;;;;;;;;5023749;28;20041;-79
2022/03/08 10:13:19;;;;;;;34.42;16.48;;;;;;;;;;5023296;28;20026;-77
2022/03/08 10:15:45;;;;;;;28.63;13.68;;;;;;;;;;5023967;28;20018;-77
2022/03/08 10:18:10;;;;;;;31.80;15.40;;;;;;;;;;5023734;28;20025;-77
2022/03/08 10:20:36;;;;;;;33.22;16.48;;;;;;;;;;5023587;28;20265;-79
2022/03/08 10:23:09;;;;;;;33.08;17.52;;;;;;;;;;5023530;28;20214;-78
2022/03/08 10:25:35;;;;;;;36.15;16.67;;;;;;;;;;5024167;28;20283;-76
2022/03/08 10:28:04;;;;;;;36.70;16.42;;;;;;;;;;5028151;28;20240;-79
2022/03/08 10:30:29;;;;;;;33.60;15.65;;;;;;;;;;5023615;28;20044;-79
2022/03/08 10:32:59;;;;;;;31.98;17.10;;;;;;;;;;5023722;28;20317;-79
2022/03/08 10:35:29;;;;;;;31.23;16.13;;;;;;;;;;5023929;28;20025;-79
2022/03/08 10:38:02;;;;;;;36.17;17.15;;;;;;;;;;5023209;28;20064;-79
2022/03/08 10:40:37;;;;;;;35.67;17.48;;;;;;;;;;5023004;28;20072;-78
2022/03/08 10:43:08;;;;;;;29.55;15.30;;;;;;;;;;5023697;28;20221;-79
2022/03/08 10:45:36;;;;;;;32.58;15.80;;;;;;;;;;5023327;28;20314;-79
2022/03/08 10:48:07;;;;;;;28.35;13.90;;;;;;;;;;5023719;28;20064;-78
2022/03/08 10:50:34;;;;;;;32.92;16.08;;;;;;;;;;5023349;28;20285;-78
2022/03/08 10:53:02;;;;;;;32.63;17.15;;;;;;;;;;5022915;28;20060;-79
2022/03/08 10:55:36;;;;;;;32.00;16.73;;;;;;;;;;5023042;28;20314;-78
2022/03/08 10:58:03;;;;;;;30.95;16.48;;;;;;;;;;5023294;28;20061;-79
2022/03/08 11:00:43;;;;;;;31.40;16.65;;;;;;;;;;5022945;28;20038;-79
2022/03/08 11:03:16;;;;;;;30.92;16.05;;;;;;;;;;5031073;28;20034;-80
2022/03/08 11:05:44;;;;;;;32.28;16.17;;;;;;;;;;5023019;28;20028;-78
2022/03/08 11:08:10;;;;;;;30.85;16.55;;;;;;;;;;5022690;28;20049;-80
2022/03/08 11:10:36;;;;;;;30.73;16.52;;;;;;;;;;5039027;28;20033;-79
2022/03/08 11:13:03;;;;;;;32.45;16.98;;;;;;;;;;5050341;28;20024;-79
2022/03/08 11:15:31;;;;;;;33.28;16.98;;;;;;;;;;5022747;28;20038;-80
2022/03/08 11:17:58;;;;;;;39.08;17.60;;;;;;;;;;5030170;28;20026;-80
2022/03/08 11:20:25;;;;;;;28.23;16.08;;;;;;;;;;5021432;28;20052;-81
2022/03/08 11:22:54;;;;;;;33.65;17.15;;;;;;;;;;5027474;28;20423;-80
2022/03/08 11:25:20;;;;;;;30.85;16.67;;;;;;;;;;5032386;28;20168;-80
2022/03/08 11:27:47;;;;;;;32.05;16.90;;;;;;;;;;5033463;28;20485;-81
2022/03/08 11:30:17;;;;;;;29.80;16.30;;;;;;;;;;5011556;28;20038;-80
2022/03/08 11:32:50;;;;;;;30.67;16.33;;;;;;;;;;5011136;28;20026;-81
2022/03/08 11:35:27;;;;;;;31.23;16.52;;;;;;;;;;5011567;28;20125;-81
2022/03/08 11:37:54;;;;;;;31.23;14.95;;;;;;;;;;5011073;28;20088;-81
2022/03/08 11:40:20;;;;;;;27.20;13.10;;;;;;;;;;5011206;28;20061;-80
2022/03/08 11:42:50;;;;;;;34.90;15.27;;;;;;;;;;5011135;28;20029;-80
2022/03/08 11:45:28;;;;;;;31.92;16.85;;;;;;;;;;5010977;28;20029;-81
2022/03/08 11:47:59;;;;;;;33.08;17.00;;;;;;;;;;5010914;28;20053;-78
2022/03/08 11:50:27;;;;;;;31.02;16.35;;;;;;;;;;5011646;28;20498;-79
2022/03/08 11:53:14;;;;;;;30.90;16.60;;;;;;;;;;5011456;28;20538;-77
2022/03/08 11:55:48;;;;;;;28.88;16.10;;;;;;;;;;5009544;28;20025;-79
2022/03/08 11:58:20;;;;;;;30.15;15.70;;;;;;;;;;5010875;28;20087;-79
2022/03/08 12:00:51;;;;;;;36.33;16.65;;;;;;;;;;5010685;28;20060;-78
2022/03/08 12:03:36;;;;;;;31.98;16.95;;;;;;;;;;5009543;28;20022;-78
2022/03/08 12:06:04;;;;;;;28.73;15.77;;;;;;;;;;5010786;28;20101;-78
2022/03/08 12:08:29;;;;;;;30.60;15.88;;;;;;;;;;5010612;28;20064;-75
2022/03/08 12:11:03;;;;;;;31.30;16.77;;;;;;;;;;5010769;28;20042;-77
2022/03/08 12:13:31;;;;;;;31.10;15.98;;;;;;;;;;5010685;28;20037;-78
2022/03/08 12:16:05;;;;;;;29.20;15.35;;;;;;;;;;5009525;28;20041;-77
2022/03/08 12:18:37;;;;;;;32.00;17.20;;;;;;;;;;5010708;28;20032;-79
2022/03/08 12:21:15;;;;;;;29.20;15.95;;;;;;;;;;5021232;28;20045;-78
2022/03/08 12:23:56;;;;;;;29.45;15.90;;;;;;;;;;5024339;28;20045;-78
2022/03/08 12:26:25;;;;;;;32.13;16.70;;;;;;;;;;5032229;28;20075;-78
2022/03/08 12:29:12;;;;;;;29.00;16.08;;;;;;;;;;5029487;28;20052;-77
2022/03/08 12:32:05;;;;;;;31.85;16.65;;;;;;;;;;5019962;28;20026;-78
2022/03/08 12:34:46;;;;;;;29.85;15.93;;;;;;;;;;5017717;28;20056;-77
2022/03/08 12:37:36;;;;;;;30.83;15.25;;;;;;;;;;5021649;28;20028;-77
2022/03/08 12:40:21;;;;;;;28.35;15.90;;;;;;;;;;5025868;28;20049;-78
2022/03/08 12:42:52;;;;;;;29.33;15.00;;;;;;;;;;5031201;28;20294;-77
2022/03/08 12:45:22;;;;;;;29.38;16.33;;;;;;;;;;5020586;28;20034;-77
2022/03/08 12:47:54;;;;;;;32.28;16.05;;;;;;;;;;5017136;28;20105;-78
2022/03/08 12:50:24;;;;;;;30.17;16.05;;;;;;;;;;5018157;28;20041;-77
2022/03/08 12:52:54;;;;;;;31.42;15.98;;;;;;;;;;5020048;28;20025;-78
2022/03/08 12:55:23;;;;;;;28.92;15.70;;;;;;;;;;5021263;28;20030;-76
2022/03/08 12:57:55;;;;;;;29.17;15.55;;;;;;;;;;5021301;28;20026;-77
2022/03/08 13:00:36;;;;;;;27.85;14.10;;;;;;;;;;5021068;28;20029;-77
2022/03/08 13:03:03;;;;;;;29.00;14.70;;;;;;;;;;5020622;28;20022;-77
2022/03/08 13:05:37;;;;;;;28.33;14.82;;;;;;;;;;5021184;28;20049;-77
2022/03/08 13:08:03;;;;;;;29.93;15.00;;;;;;;;;;5021076;28;20095;-77
2022/03/08 13:10:33;;;;;;;29.27;15.40;;;;;;;;;;5021020;28;20314;-74
2022/03/08 13:13:03;;;;;;;31.05;15.68;;;;;;;;;;5021197;28;20033;-75
2022/03/08 13:15:29;;;;;;;27.17;15.25;;;;;;;;;;5021329;28;20021;-76
2022/03/08 13:17:57;;;;;;;30.90;15.65;;;;;;;;;;5019703;28;20034;-76
2022/03/08 13:20:34;;;;;;;19.67;8.90;;;;;;;;;;5044973;28;20038;-77
2022/03/08 13:23:09;;;;;;;23.90;11.82;;;;;;;;;;5038398;28;20076;-74
2022/03/08 13:25:36;;;;;;;28.67;14.13;;;;;;;;;;5044167;28;20041;-75
2022/03/08 13:28:05;;;;;;;26.65;14.05;;;;;;;;;;5051846;28;20021;-75
2022/03/08 13:30:42;;;;;;;29.50;15.23;;;;;;;;;;5060207;28;20260;-75
2022/03/08 13:33:14;;;;;;;31.38;16.35;;;;;;;;;;5056717;28;20055;-75
2022/03/08 13:35:45;;;;;;;26.65;15.07;;;;;;;;;;5060969;28;20017;-75
2022/03/08 13:38:19;;;;;;;27.17;12.65;;;;;;;;;;5056114;28;20052;-74
2022/03/08 13:40:46;;;;;;;30.65;15.32;;;;;;;;;;5055607;28;20078;-75
2022/03/08 13:43:13;;;;;;;28.92;14.50;;;;;;;;;;5060844;28;20055;-78
2022/03/08 13:45:40;;;;;;;29.40;15.80;;;;;;;;;;5060938;28;20029;-75
2022/03/08 13:48:07;;;;;;;31.08;16.70;;;;;;;;;;5062551;28;20029;-75
2022/03/08 13:50:33;;;;;;;29.08;15.90;;;;;;;;;;5061543;28;20135;-74
2022/03/08 13:53:11;;;;;;;30.98;16.92;;;;;;;;;;5062058;28;20021;-75
2022/03/08 13:55:39;;;;;;;28.33;15.25;;;;;;;;;;5060982;28;20021;-75
2022/03/08 13:58:13;;;;;;;30.10;16.17;;;;;;;;;;5061703;28;20260;-75
2022/03/08 14:00:39;;;;;;;32.40;17.05;;;;;;;;;;5061920;28;20067;-74
2022/03/08 14:03:06;;;;;;;37.13;18.20;;;;;;;;;;5062886;28;20021;-74
2022/03/08 14:06:15;;;;;;;34.80;17.20;;;;;;;;;;5063487;28;20029;-75
2022/03/08 14:08:44;;;;;;;31.48;16.58;;;;;;;;;;5041232;28;20037;-79
2022/03/08 14:11:18;;;;;;;33.40;17.30;;;;;;;;;;5060992;28;20033;-79
2022/03/08 14:13:52;;;;;;;32.97;17.98;;;;;;;;;;5064004;28;20359;-79
2022/03/08 14:16:18;;;;;;;30.00;15.95;;;;;;;;;;5063617;28;20260;-79